In Rescue
 
Open Full Screen Window  High Contrast Mode
November 19, 2019 11:58 AM CST
Present Weather: Mist
Weather Information
Wind Direction
  ---
Wind Speed
  00 kt (0 mph)
Wind Gust
  00 kt (0 mph)
Altimeter
29.75 in
Visibility
3/4 SM
Temperature
01° C
34° F
Dewpoint
-01° C
30° F
Humidity
87%
1hr Rain Fall
00.00 in.
24hr Rain Fall
00.01 in.
Sky Condition
Overcast @ 200 ft
LIFR

METAR KCOQ 191758Z AUTO 00000KT 3/4SM BR OVC002 01/M01 A2975 RMK AO2

FAA Disclaimer: The data displayed is for advisory purposes only and is not to be used for flight planning or operations.